< < Back
Terminal Aerodrome Forecast


Current Version              Previous Versions:   1  2  3  4  5  6  7  8  9  

Terminal Aerodrome Forecast

767
FTUS42 KMLB 192000 AAB
TAFMCO
TAF AMD
KMCO 192058Z 1921/2018 27014G20KT P6SM SCT025 BKN050
     FM200000 29010KT P6SM SCT012 BKN020
     FM201400 32012KT P6SM SCT040 BKN080
      TEMPO 2014/2018 BKN040=



Latest METAR

488
SAUS70 KWBC 200300
MTRMCO
METAR KMCO 200253Z 30010KT 10SM BKN028 OVC035 18/12 A2998 RMK AO2 SLP150
T01830122 53014


USA.gov is the U.S. government's official web portal to all federal, state and local government web resources and services.